Time;durP1;ratioP1;P1;durP2;ratioP2;P2;SDS_P1;SDS_P2;PMS_P1;PMS_P2;Temp;Humidity;BMP_temperature;BMP_pressure;BME280_temperature;BME280_humidity;BME280_pressure;Samples;Min_cycle;Max_cycle;Signal;HPM_P1;HPM_P2
2021/10/05 00:00:53;;;;;;;5.13;2.58;;;;;;;;;;6338297;22;20022;-93
2021/10/05 00:03:20;;;;;;;4.68;2.75;;;;;;;;;;6336691;22;20010;-93
2021/10/05 00:05:46;;;;;;;5.28;2.30;;;;;;;;;;6338106;22;19999;-94
2021/10/05 00:08:12;;;;;;;2.78;2.05;;;;;;;;;;6337012;22;20010;-94
2021/10/05 00:10:38;;;;;;;3.92;2.40;;;;;;;;;;6336422;22;20002;-95
2021/10/05 00:13:04;;;;;;;4.20;2.67;;;;;;;;;;6336472;22;20010;-93
2021/10/05 00:15:30;;;;;;;4.80;3.10;;;;;;;;;;6337706;22;20350;-94
2021/10/05 00:17:56;;;;;;;10.70;2.85;;;;;;;;;;6336582;22;20003;-93
2021/10/05 00:20:23;;;;;;;3.95;2.10;;;;;;;;;;6338470;22;20002;-93
2021/10/05 00:22:49;;;;;;;7.82;2.72;;;;;;;;;;6338078;22;20078;-93
2021/10/05 00:25:15;;;;;;;5.65;2.60;;;;;;;;;;6339459;22;20007;-93
2021/10/05 00:27:41;;;;;;;5.32;2.85;;;;;;;;;;6339431;22;20081;-93
2021/10/05 00:30:08;;;;;;;5.18;2.88;;;;;;;;;;6338368;22;20060;-93
2021/10/05 00:32:34;;;;;;;6.30;3.13;;;;;;;;;;6340242;22;20006;-95
2021/10/05 00:35:00;;;;;;;7.55;3.15;;;;;;;;;;6340126;22;20034;-95
2021/10/05 00:37:26;;;;;;;5.32;2.95;;;;;;;;;;6340041;22;20405;-93
2021/10/05 00:39:52;;;;;;;4.97;2.28;;;;;;;;;;6340276;22;20745;-93
2021/10/05 00:42:19;;;;;;;6.28;2.85;;;;;;;;;;6340044;22;20002;-93
2021/10/05 00:44:45;;;;;;;4.13;2.35;;;;;;;;;;6338069;22;20014;-92
2021/10/05 00:47:12;;;;;;;10.73;2.58;;;;;;;;;;6338383;22;20024;-94
2021/10/05 00:49:39;;;;;;;;;;;13.00;80.30;;;;;;6339127;22;20499;-95
2021/10/05 00:52:06;;;;;;;4.95;2.03;;;;;;;;;;6340268;22;20031;-94
2021/10/05 00:54:33;;;;;;;4.68;2.42;;;;;;;;;;6337699;22;20011;-93
2021/10/05 00:56:59;;;;;;;3.80;2.05;;;;;;;;;;6338386;22;20003;-94
2021/10/05 00:59:25;;;;;;;3.50;2.20;;;;;;;;;;6338068;22;20021;-93
2021/10/05 01:01:51;;;;;;;3.70;2.67;;;;;;;;;;6339880;22;19999;-93
2021/10/05 01:04:17;;;;;;;3.35;2.40;;;;;;;;;;6338614;22;20003;-93
2021/10/05 01:07:03;;;;;;;3.50;2.40;;;;;;;;;;6337602;22;20006;-94
2021/10/05 01:09:30;;;;;;;3.50;2.00;;;;;;;;;;6339858;22;20058;-95
2021/10/05 01:11:56;;;;;;;4.45;2.15;;;;;;;;;;6338246;22;19999;-95
2021/10/05 01:14:23;;;;;;;4.53;2.50;;;;;;;;;;6339173;22;20022;-94
2021/10/05 01:16:53;;;;;;;6.82;2.70;;;;;;;;;;6339549;22;20005;-92
2021/10/05 01:19:19;;;;;;;4.50;1.98;;;;;;;;;;6338512;22;20001;-94
2021/10/05 01:21:45;;;;;;;5.15;2.65;;;;;;;;;;6337931;22;20089;-95
2021/10/05 01:24:13;;;;;;;3.95;2.47;;;;;;;;;;6339289;22;20088;-93
2021/10/05 01:26:39;;;;;;;6.25;3.45;;;;;;;;;;6337544;22;20007;-93
2021/10/05 01:29:06;;;;;;;4.75;3.05;;;;;;;;;;6337886;22;19998;-94
2021/10/05 01:31:33;;;;;;;3.60;2.45;;;;;;;;;;6338029;22;20007;-92
2021/10/05 01:34:00;;;;;;;3.63;2.35;;;;;;;;;;6337832;22;20010;-93
2021/10/05 01:36:26;;;;;;;3.78;2.05;;;;;;;;;;6338174;22;20003;-94
2021/10/05 01:38:52;;;;;;;4.50;2.20;;;;;;;;;;6338819;22;20002;-95
2021/10/05 01:41:18;;;;;;;4.15;2.00;;;;;;;;;;6337537;22;20010;-93
2021/10/05 01:43:44;;;;;;;3.70;2.45;;;;;;;;;;6339183;22;20442;-94
2021/10/05 01:46:14;;;;;;;3.95;1.77;;;;;;;;;;6337611;22;20313;-93
2021/10/05 01:48:43;;;;;;;4.68;2.88;;;;;;;;;;6339844;22;20368;-93
2021/10/05 01:51:10;;;;;;;6.88;2.78;;;;;;;;;;6338039;22;20505;-93
2021/10/05 01:53:36;;;;;;;11.02;2.88;;;;;;;;;;6337717;22;20014;-93
2021/10/05 01:56:02;;;;;;;2.45;2.13;;;;;;;;;;6337714;22;20430;-96
2021/10/05 01:58:28;;;;;;;5.25;2.78;;;;;;;;;;6340011;22;20697;-95
2021/10/05 02:00:54;;;;;;;3.67;1.70;;;;;;;;;;6339100;22;20003;-93
2021/10/05 02:03:20;;;;;;;7.90;2.22;;;;;;;;;;6337205;22;20086;-94
2021/10/05 02:05:46;;;;;;;4.70;1.73;;;;;;;;;;6337757;22;20003;-94
2021/10/05 02:08:13;;;;;;;11.25;2.85;;;;;;;;;;6337878;22;20015;-93
2021/10/05 02:10:40;;;;;;;3.63;1.88;;;;;;;;;;6337070;22;19999;-94
2021/10/05 02:13:06;;;;;;;14.48;2.58;;;;;;;;;;6337315;22;20097;-94
2021/10/05 02:15:33;;;;;;;4.88;2.70;;;;;;;;;;6339031;22;20027;-93
2021/10/05 02:17:59;;;;;;;3.65;1.63;;;;;;;;;;6338971;22;20037;-93
2021/10/05 02:20:25;;;;;;;3.38;1.83;;;;;;;;;;6339375;22;20007;-94
2021/10/05 02:22:52;;;;;;;0.82;0.82;;;;;;;;;;6337043;22;20029;-94
2021/10/05 02:25:19;;;;;;;4.22;1.75;;;;;;;;;;6339291;22;20006;-93
2021/10/05 02:27:45;;;;;;;2.25;1.80;;;;;;;;;;6338759;22;20081;-93
2021/10/05 02:30:11;;;;;;;1.73;1.30;;;;;;;;;;6337561;22;20376;-93
2021/10/05 02:32:39;;;;;;;3.90;1.58;;;;;;;;;;6339012;22;20002;-94
2021/10/05 02:35:05;;;;;;;;;;;12.80;77.60;;;;;;6338254;22;20014;-93
2021/10/05 02:37:32;;;;;;;6.43;2.80;;;;;;;;;;6337246;22;19899;-94
2021/10/05 02:40:02;;;;;;;3.63;1.52;;;;;;;;;;6338385;22;20006;-94
2021/10/05 02:42:28;;;;;;;2.78;1.83;;;;;;;;;;6338639;22;20003;-93
2021/10/05 02:44:54;;;;;;;3.45;1.90;;;;;;;;;;6338547;22;20006;-94
2021/10/05 02:47:21;;;;;;;2.08;1.42;;;;;;;;;;6338756;22;20048;-94
2021/10/05 02:49:47;;;;;;;2.83;1.57;;;;;;;;;;6337124;22;20003;-93
2021/10/05 02:52:14;;;;;;;1.88;1.15;;;;;;;;;;6339181;22;20386;-95
2021/10/05 02:54:40;;;;;;;2.53;1.77;;;;;;;;;;6338720;22;20010;-95
2021/10/05 02:57:06;;;;;;;3.67;1.90;;;;;;;;;;6338813;22;20002;-93
2021/10/05 02:59:33;;;;;;;3.33;1.70;;;;;;;;;;6338808;22;20230;-94
2021/10/05 03:01:59;;;;;;;1.15;1.00;;;;;;;;;;6338129;22;19999;-94
2021/10/05 03:04:25;;;;;;;1.45;1.10;;;;;;;;;;6337081;22;20048;-93
2021/10/05 03:06:51;;;;;;;3.58;1.50;;;;;;;;;;6338845;22;20009;-93
2021/10/05 03:09:17;;;;;;;1.65;1.38;;;;;;;;;;6336644;22;20019;-93
2021/10/05 03:11:43;;;;;;;1.42;1.30;;;;;;;;;;6337016;22;20003;-94
2021/10/05 03:14:09;;;;;;;2.03;1.65;;;;;;;;;;6337903;22;20038;-95
2021/10/05 03:16:35;;;;;;;2.72;1.30;;;;;;;;;;6337121;22;20015;-94
2021/10/05 03:19:01;;;;;;;1.05;0.88;;;;;;;;;;6337040;22;19999;-95
2021/10/05 03:21:27;;;;;;;1.27;1.17;;;;;;;;;;6338454;22;20299;-94
2021/10/05 03:23:53;;;;;;;0.90;0.70;;;;;;;;;;6337881;22;20609;-95
2021/10/05 03:26:19;;;;;;;0.50;0.50;;;;;;;;;;6338834;22;20026;-95
2021/10/05 03:28:46;;;;;;;3.70;1.63;;;;;;;;;;6338633;22;20010;-94
2021/10/05 03:31:12;;;;;;;1.65;0.70;;;;;;;;;;6337160;22;20017;-93
2021/10/05 03:33:39;;;;;;;0.50;0.50;;;;;;;;;;6336927;22;20021;-94
2021/10/05 03:36:05;;;;;;;1.00;0.93;;;;;;;;;;6338232;22;20010;-94
2021/10/05 03:38:31;;;;;;;0.50;0.50;;;;;;;;;;6337391;22;20002;-95
2021/10/05 03:40:57;;;;;;;3.63;0.73;;;;;;;;;;6337013;22;20026;-94
2021/10/05 03:43:24;;;;;;;0.75;0.70;;;;;;;;;;6338651;22;20430;-95
2021/10/05 03:45:50;;;;;;;0.50;0.50;;;;;;;;;;6336982;22;20055;-94
2021/10/05 03:48:17;;;;;;;1.30;0.70;;;;;;;;;;6337267;22;20003;-94
2021/10/05 03:50:43;;;;;;;2.05;1.77;;;;;;;;;;6336974;22;20006;-96
2021/10/05 03:53:11;;;;;;;1.70;0.60;;;;;;;;;;6335769;22;20059;-93
2021/10/05 03:55:37;;;;;;;0.45;0.45;;;;;;;;;;6338691;22;20006;-94
2021/10/05 03:58:03;;;;;;;1.10;0.80;;;;;;;;;;6336671;22;20031;-93
2021/10/05 04:00:29;;;;;;;0.70;0.70;;;;;;;;;;6338651;22;20007;-95
2021/10/05 04:02:56;;;;;;;4.05;0.93;;;;;;;;;;6338172;22;20025;-96
2021/10/05 04:05:22;;;;;;;1.05;0.90;;;;;;;;;;6338149;22;20048;-95
2021/10/05 04:07:48;;;;;;;7.47;0.95;;;;;;;;;;6337650;22;20075;-93
2021/10/05 04:10:14;;;;;;;1.15;0.90;;;;;;;;;;6337110;22;20014;-94
2021/10/05 04:12:40;;;;;;;1.65;1.55;;;;;;;;;;6336503;22;20033;-94
2021/10/05 04:15:07;;;;;;;3.47;0.90;;;;;;;;;;6336249;22;20343;-93
2021/10/05 04:17:33;;;;;;;0.73;0.57;;;;;;;;;;6336675;22;20009;-94
2021/10/05 04:19:59;;;;;;;0.50;0.50;;;;;;;;;;6338151;22;20061;-93
2021/10/05 04:22:25;;;;;;;2.15;0.93;;;;;;;;;;6335936;22;20433;-94
2021/10/05 04:24:51;;;;;;;0.70;0.70;;;;;;;;;;6337314;22;20002;-94
2021/10/05 04:27:17;;;;;;;5.95;1.10;;;;;;;;;;6338031;22;20070;-95
2021/10/05 04:29:43;;;;;;;1.05;0.80;;;;;;;;;;6335894;22;20003;-94
2021/10/05 04:32:10;;;;;;;1.40;1.25;;;;;;;;;;6337177;22;20010;-94
2021/10/05 04:34:36;;;;;;;1.15;0.88;;;;;;;;;;6337427;22;20014;-94
2021/10/05 04:37:02;;;;;;;1.30;1.20;;;;;;;;;;6335618;22;20006;-94
2021/10/05 04:39:29;;;;;;;1.38;0.73;;;;;;;;;;6336941;22;20003;-94
2021/10/05 04:41:55;;;;;;;1.05;0.95;;;;;;;;;;6337268;22;19998;-96
2021/10/05 04:44:21;;;;;;;0.88;0.68;;;;;;;;;;6337073;22;20066;-95
2021/10/05 04:46:47;;;;;;;1.77;1.02;;;;;;;;;;6335446;22;20049;-95
2021/10/05 04:49:13;;;;;;;1.88;1.10;;;;;;;;;;6337086;22;20007;-94
2021/10/05 04:51:39;;;;;;;0.65;0.65;;;;;;;;;;6337209;22;20026;-93
2021/10/05 04:54:05;;;;;;;2.30;1.08;;;;;;;;;;6335317;22;20461;-94
2021/10/05 04:56:31;;;;;;;2.35;1.05;;;;;;;;;;6337050;22;20010;-95
2021/10/05 04:58:57;;;;;;;1.35;1.25;;;;;;;;;;6336669;22;20003;-93
2021/10/05 05:01:23;;;;;;;2.05;1.20;;;;;;;;;;6337276;22;20002;-93
2021/10/05 05:03:49;;;;;;;2.58;1.58;;;;;;;;;;6335389;22;20659;-95
2021/10/05 05:06:15;;;;;;;1.77;1.63;;;;;;;;;;6335101;22;20090;-95
2021/10/05 05:08:41;;;;;;;2.22;1.17;;;;;;;;;;6335062;22;20059;-94
2021/10/05 05:11:07;;;;;;;1.85;1.73;;;;;;;;;;6337687;22;20005;-94
2021/10/05 05:13:33;;;;;;;14.20;2.22;;;;;;;;;;6336898;22;20117;-94
2021/10/05 05:15:59;;;;;;;3.08;2.15;;;;;;;;;;6338883;22;20038;-94
2021/10/05 05:18:25;;;;;;;3.22;2.20;;;;;;;;;;6338747;22;20022;-94
2021/10/05 05:20:51;;;;;;;1.88;1.48;;;;;;;;;;6338781;22;19999;-94
2021/10/05 05:23:17;;;;;;;4.68;1.17;;;;;;;;;;6338512;22;20494;-94
2021/10/05 05:25:45;;;;;;;2.80;0.95;;;;;;;;;;6334291;22;19998;-94
2021/10/05 05:28:14;;;;;;;0.80;0.80;;;;;;;;;;6336437;22;19998;-93
2021/10/05 05:30:43;;;;;;;2.72;1.42;;;;;;;;;;6337102;22;19998;-94
2021/10/05 05:33:09;;;;;;;0.65;0.65;;;;;;;;;;6334910;22;20019;-94
2021/10/05 05:35:35;;;;;;;3.95;0.85;;;;;;;;;;6336133;22;20059;-94
2021/10/05 05:38:01;;;;;;;1.08;0.90;;;;;;;;;;6338480;22;19999;-92
2021/10/05 05:40:27;;;;;;;1.05;0.95;;;;;;;;;;6334233;22;20006;-92
2021/10/05 05:42:53;;;;;;;1.73;1.25;;;;;;;;;;6336209;22;20450;-90
2021/10/05 05:45:19;;;;;;;2.42;1.25;;;;;;;;;;6337936;22;19998;-94
2021/10/05 05:47:45;;;;;;;1.63;0.95;;;;;;;;;;6335821;22;20464;-92
2021/10/05 05:50:11;;;;;;;1.95;1.05;;;;;;;;;;6338378;22;20070;-92
2021/10/05 05:52:44;;;;;;;1.13;0.90;;;;;;;;;;6336442;22;20060;-94
2021/10/05 05:55:15;;;;;;;1.23;1.13;;;;;;;;;;6336908;22;20075;-96
2021/10/05 05:57:49;;;;;;;2.58;1.65;;;;;;;;;;6338923;22;20008;-94
2021/10/05 06:00:49;;;;;;;0.75;0.70;;;;;;;;;;6339361;22;20013;-94
2021/10/05 06:12:50;;;;;;;;;;;;;;;;;;;;;
2021/10/05 06:18:43;;;;;;;1.98;1.67;;;;;;;;;;6276136;22;20008;-96
2021/10/05 06:21:57;;;;;;;4.40;1.73;;;;;;;;;;6273445;22;20004;-96
2021/10/05 06:24:01;;;;;;;2.10;1.27;;;;;;;;;;6264597;22;20230;-95
2021/10/05 06:26:27;;;;;;;5.70;2.90;;;;;;;;;;6272824;22;20008;-94
2021/10/05 06:28:53;;;;;;;3.15;1.63;;;;;;;;;;6274584;22;20008;-94
2021/10/05 06:31:19;;;;;;;2.05;1.60;;;;;;;;;;6273522;22;20004;-95
2021/10/05 06:33:45;;;;;;;2.60;1.40;;;;;;;;;;6273271;22;20008;-95
2021/10/05 06:36:11;;;;;;;0.80;0.70;;;;;;;;;;6274458;22;20004;-95
2021/10/05 06:38:37;;;;;;;3.53;1.38;;;;;;;;;;6271641;22;20010;-95
2021/10/05 06:41:26;;;;;;;1.13;0.98;;;;;;;;;;6275262;22;20007;-93
2021/10/05 06:43:52;;;;;;;1.13;1.00;;;;;;;;;;6273356;22;20004;-92
